LFLL

Lyon Saint-Exupéry Airport

Lyon, France
TAF LFLL 171100Z 1712/1818 VRB02KT 9999 FEW025 BKN040 BECMG 1716/1718 CAVOK TEMPO 1720/1808 3000 BR PROB40 TEMPO 1800/1807 0400 BCFG SCT001 BECMG 1807/1810 14012KT BECMG 1812/1814 18015G25KT TEMPO 1814/1818 18020G35KT PROB30 TEMPO 1816/1818 18030G45KT
Issued Valid From Valid To
Dec-17 @ 11:00 UTC
(an hour ago)
Dec-17 @ 12:00 UTC
(8 minutes ago)
Dec-18 @ 18:00 UTC
(-1 days ago)
Dec-17 @ 12:00 to Dec-17 @ 16:00
TAF LFLL 171100Z 1712/1818 VRB02KT 9999 FEW025 BKN040
Wind Visibility Clouds
Variable at 2 knots 10,000+ meters
  • Few at 2,500' AGL
  • Broken at 4,000' AGL
Becoming Dec-17 @ 16:00 to Dec-18 @ 07:00
BECMG 1716/1718 CAVOK
Wind Visibility Clouds Conditions
Variable at 2 knots 10,000+ meters
  • No significant clouds
Temporary Dec-17 @ 20:00 to Dec-18 @ 08:00
TEMPO 1720/1808 3000 BR
Visibility Conditions
2,993 meters
  • Mist
Temporary  (Probability 40%) Dec-18 @ 00:00 to Dec-18 @ 07:00
PROB40 TEMPO 1800/1807 0400 BCFG SCT001
Visibility Clouds Conditions
402 meters
  • Scattered at 100' AGL
  • Patches of
  • Fog
Becoming Dec-18 @ 07:00 to Dec-18 @ 12:00
BECMG 1807/1810 14012KT
Wind Visibility Clouds Conditions
140° at 12 knots 10,000+ meters
  • No significant clouds
Becoming Dec-18 @ 12:00 to Dec-18 @ 18:00
BECMG 1812/1814 18015G25KT
Wind Visibility Clouds Conditions
180° at 15 knots
 Gusting to 25 knots
10,000+ meters
  • No significant clouds
Temporary Dec-18 @ 14:00 to Dec-18 @ 18:00
TEMPO 1814/1818 18020G35KT
Wind
180° at 20 knots
 Gusting to 35 knots
Temporary  (Probability 30%) Dec-18 @ 16:00 to Dec-18 @ 18:00
PROB30 TEMPO 1816/1818 18030G45KT
Wind
180° at 30 knots
 Gusting to 45 knots
TAF LFLL 171100Z 1712/1818 VRB02KT 9999 FEW025 BKN040 BECMG 1716/1718 CAVOK TEMPO 1720/1808 3000 BR PROB40 TEMPO 1800/1807 0400 BCFG SCT001 BECMG 1807/1810 14012KT BECMG 1812/1814 18015G25KT TEMPO 1814/1818 18020G35KT PROB30 TEMPO 1816/1818 18030G45KT
Issued Dec-17 @ 11:00 UTC
(an hour ago)
Valid From Dec-17 @ 12:00 UTC
(8 minutes ago)
Valid To Dec-18 @ 18:00 UTC
(-1 days ago)
Dec-17 @ 12:00 - Dec-17 @ 16:00
Wind Visibility
Variable at 2 knots 10,000+ meters
Clouds
  • Few at 2,500' AGL
  • Broken at 4,000' AGL
Becoming Dec-17 @ 16:00 - Dec-18 @ 07:00
Wind Visibility
Variable at 2 knots 10,000+ meters
Clouds
  • No significant clouds
Conditions
Temporary Dec-17 @ 20:00 - Dec-18 @ 08:00
Conditions
  • Mist
Probability 40% Temporary Dec-18 @ 00:00 - Dec-18 @ 07:00
Clouds
  • Scattered at 100' AGL
Conditions
  • Patches of
  • Fog
Becoming Dec-18 @ 07:00 - Dec-18 @ 12:00
Wind Visibility
140° at 12 knots 10,000+ meters
Clouds
  • No significant clouds
Conditions
Becoming Dec-18 @ 12:00 - Dec-18 @ 18:00
Wind Visibility
180° at 15 knots
 Gusting to 25 knots
10,000+ meters
Clouds
  • No significant clouds
Conditions
Temporary Dec-18 @ 14:00 - Dec-18 @ 18:00
Wind
180° at 20 knots
 Gusting to 35 knots
Probability 30% Temporary Dec-18 @ 16:00 - Dec-18 @ 18:00
Wind
180° at 30 knots
 Gusting to 45 knots